• Join FlightAware (Why Join?)
  • Login
  • US Flag 
02:42PM EDT


 

Airport Tracker/Info


-or-


 

Live Flight TrackerFlight Track Log ✈ TAM3544 ✈ 17-May-2013 ✈ SBGR / GRU - SBBE / BEL

Flight Track Log - Related Links

Times and Time Zones

All times are in EDT time to prevent confusion due to time zone crossing. See the TAM3544 flight status page for this flight to view local times or setup timezone preferences in your user account.

Time Position Orientation Groundspeed Altitude Reporting Facility
EDT Latitude Longitude Course Direction KTS MPH feet Rate Location/Type
09:27PM -23.4250 -46.4480 180° South 159 183 2,900  Level FlightAware
09:28PM -23.4080 -46.3920 72° East 169 194 5,500 1,440 Climbing FlightAware
09:29PM -23.3750 -46.3240 62° Northeast 267 307 6,500 1,680 Climbing FlightAware
09:31PM -23.2830 -46.2760 26° Northeast 305 351 9,700 2,220 Climbing FlightAware
09:32PM -23.1890 -46.2240 27° Northeast 342 394 11,900 1,980 Climbing FlightAware
09:34PM -22.9847 -46.2475 354° North  Level Estimated
09:34PM -22.9500 -46.1970 354° North 374 430 16,900  Level FlightAware
09:35PM -22.8280 -46.2180 351° North 371 427 19,600 1,800 Climbing FlightAware
09:37PM -22.6830 -46.2430 351° North 408 470 21,400 1,440 Climbing FlightAware
09:38PM -22.5490 -46.2660 351° North 420 483 23,200 1,560 Climbing FlightAware
09:39PM -22.4040 -46.2910 351° North 422 486 25,300 1,320 Climbing FlightAware
09:40PM -22.2660 -46.3140 351° North 442 509 26,500 960 Climbing FlightAware
09:42PM -22.1100 -46.3410 351° North 452 520 27,700 960 Climbing FlightAware
09:43PM -21.9510 -46.3710 350° North 472 543 28,900 900 Climbing FlightAware
09:44PM -21.8090 -46.3950 351° North 473 544 29,900 960 Climbing FlightAware
09:45PM -21.6330 -46.4230 352° North 473 544 31,300 1,020 Climbing FlightAware
09:46PM -21.5580 -46.4360 351° North 482 555 31,900 1,260 Climbing FlightAware
09:47PM -21.4600 -46.4520 351° North 473 544 33,000 1,380 Climbing FlightAware
09:47PM -21.3960 -46.4620 352° North 466 536 33,800 1,380 Climbing FlightAware
09:48PM -21.2890 -46.4800 351° North 456 525 35,000 1,080 Climbing FlightAware
09:49PM -21.1910 -46.4960 351° North 458 527 35,600 720 Climbing FlightAware
09:49PM -21.1050 -46.5100 351° North 459 528 36,100 720 Climbing FlightAware
09:50PM -21.0180 -46.5240 351° North 462 532 36,600 600 Climbing FlightAware
09:51PM -20.9120 -46.5410 351° North 466 536 37,000 660 Climbing FlightAware
09:52PM -20.8130 -46.5570 351° North 463 533 37,600 660 Climbing FlightAware
09:52PM -20.7310 -46.5700 352° North 461 531 38,000 540 Climbing FlightAware
09:53PM -20.6300 -46.5870 351° North 463 533 38,400 420 Climbing FlightAware
09:54PM -20.5470 -46.6000 352° North 464 534 38,600 300 Climbing FlightAware
09:54PM -20.4610 -46.6160 350° North 464 534 38,800 240 Climbing FlightAware
09:55PM -20.3700 -46.6330 350° North 466 536 39,000 120 Climbing FlightAware
09:56PM -20.2850 -46.6480 351° North 465 535 39,000  Level FlightAware
09:56PM -20.1870 -46.6660 350° North 464 534 39,000  Level FlightAware
09:57PM -20.1020 -46.6810 351° North 464 534 39,000  Level FlightAware
09:58PM -20.0180 -46.6970 350° North 464 534 39,000  Level FlightAware
09:58PM -19.9310 -46.7120 351° North 464 534 39,000  Level FlightAware
09:59PM -19.8360 -46.7290 350° North 464 534 39,000  Level FlightAware
10:00PM -19.7430 -46.7460 350° North 463 533 39,000  Level FlightAware
10:01PM -19.6570 -46.7610 351° North 463 533 39,000  Level FlightAware
10:01PM -19.5720 -46.7770 350° North 463 533 39,000  Level FlightAware
10:02PM -19.4740 -46.7940 351° North 463 533 39,000  Level FlightAware
10:03PM -19.3910 -46.8090 350° North 463 533 39,000  Level FlightAware
10:03PM -19.3040 -46.8240 351° North 464 534 39,000  Level FlightAware
10:04PM -19.2120 -46.8410 350° North 465 535 39,000  Level FlightAware
10:05PM -19.1260 -46.8560 351° North 466 536 39,000  Level FlightAware
10:06PM -19.0290 -46.8730 351° North 466 536 39,000  Level FlightAware
10:06PM -18.9470 -46.8880 350° North 467 537 39,000  Level FlightAware
10:07PM -18.8570 -46.9040 350° North 467 537 39,000  Level FlightAware
10:08PM -18.7630 -46.9210 350° North 467 537 39,000  Level FlightAware
10:08PM -18.6780 -46.9360 351° North 467 537 39,000  Level FlightAware
10:09PM -18.6060 -46.9480 351° North 467 537 39,000  Level FlightAware
10:10PM -18.4840 -46.9700 350° North 469 540 39,000  Level FlightAware
10:10PM -18.4060 -46.9840 350° North 470 541 39,000  Level FlightAware
10:11PM -18.2860 -47.0050 351° North 470 541 39,000  Level FlightAware
10:12PM -18.2010 -47.0200 350° North 470 541 39,000  Level FlightAware
10:13PM -18.1110 -47.0360 350° North 470 541 39,000  Level FlightAware
10:13PM -18.0210 -47.0510 351° North 470 541 39,000  Level FlightAware
10:14PM -17.9490 -47.0640 350° North 470 541 39,000  Level FlightAware
10:15PM -17.8120 -47.0890 350° North 472 543 39,000  Level FlightAware
10:16PM -17.7390 -47.1020 350° North 472 543 39,000  Level FlightAware
10:16PM -17.6660 -47.1160 350° North 472 543 39,000  Level FlightAware
10:17PM -17.5370 -47.1360 352° North 475 547 39,000  Level FlightAware
10:18PM -17.4430 -47.1530 350° North 475 547 39,000  Level FlightAware
10:19PM -17.3700 -47.1670 350° North 475 547 39,000  Level FlightAware
10:19PM -17.2520 -47.1860 351° North 475 547 39,000  Level FlightAware
10:20PM -17.1840 -47.1980 350° North 475 547 39,000  Level FlightAware
10:21PM -17.1100 -47.2120 350° North 475 547 39,000 -180 Level FlightAware
10:21PM -16.9910 -47.2310 351° North 475 547 38,800 -180 Descending FlightAware
10:22PM -16.9060 -47.2470 350° North 475 547 38,800  Level FlightAware
10:23PM -16.8330 -47.2600 350° North 475 547 38,800  Level FlightAware
10:23PM -16.7590 -47.2740 350° North 475 547 38,800 -240 Level FlightAware
10:26PM -16.5046 -47.2950 355° North  Level Estimated
10:26PM -16.3610 -47.3400 355° North 474 545 38,000  Level FlightAware
10:27PM -16.2660 -47.3570 350° North 474 545 38,000  Level FlightAware
10:28PM -16.1710 -47.3730 351° North 473 544 38,000  Level FlightAware
10:28PM -16.0750 -47.3890 351° North 472 543 38,000  Level FlightAware
10:29PM -15.9840 -47.4050 350° North 472 543 38,000  Level FlightAware
10:30PM -15.9000 -47.4200 350° North 473 544 38,000  Level FlightAware
10:30PM -15.8080 -47.4350 351° North 474 545 38,000  Level FlightAware
10:31PM -15.7250 -47.4490 351° North 475 547 38,000  Level FlightAware
10:32PM -15.6160 -47.4680 350° North 474 545 38,000  Level FlightAware
10:33PM -15.5340 -47.4820 351° North 472 543 38,000  Level FlightAware
10:35PM -15.2993 -47.4993 356° North  Level Estimated
10:35PM -15.2400 -47.5330 356° North 473 544 38,000  Level FlightAware
10:36PM -15.1660 -47.5470 350° North 473 544 38,000  Level FlightAware
10:36PM -15.0930 -47.5600 350° North 473 544 38,000  Level FlightAware
10:37PM -14.9610 -47.5800 352° North 473 544 38,000  Level FlightAware
10:38PM -14.8720 -47.5950 351° North 470 541 38,000  Level FlightAware
10:38PM -14.7770 -47.6110 351° North 471 542 38,000  Level FlightAware
10:39PM -14.6930 -47.6250 351° North 472 543 38,000  Level FlightAware
10:40PM -14.5920 -47.6420 351° North 474 545 38,000  Level FlightAware
10:40PM -14.5060 -47.6570 350° North 475 547 38,000  Level FlightAware
10:41PM -14.4080 -47.6730 351° North 476 548 38,000  Level FlightAware
10:42PM -14.3190 -47.6880 351° North 476 548 38,000  Level FlightAware
10:43PM -14.2330 -47.7030 350° North 475 547 38,000  Level FlightAware
10:43PM -14.1350 -47.7200 350° North 473 544 38,000  Level FlightAware
10:44PM -14.0500 -47.7340 351° North 472 543 38,000  Level FlightAware
10:45PM -13.9590 -47.7490 351° North 472 543 38,000  Level FlightAware
10:45PM -13.8790 -47.7630 350° North 473 544 38,000  Level FlightAware
10:46PM -13.7930 -47.7780 350° North 473 544 38,000  Level FlightAware
10:47PM -13.7200 -47.7920 349° North 473 544 38,000  Level FlightAware
10:47PM -13.6470 -47.8050 350° North 473 544 38,000  Level FlightAware
10:48PM -13.5730 -47.8180 350° North 473 544 38,000  Level FlightAware
10:49PM -13.4820 -47.8350 350° North 473 544 38,000  Level FlightAware
10:50PM -13.4090 -47.8480 350° North 473 544 38,000  Level FlightAware
10:50PM -13.3350 -47.8610 350° North 473 544 38,000  Level FlightAware
10:51PM -13.2620 -47.8750 349° North 473 544 38,000  Level FlightAware
10:52PM -13.1700 -47.8910 350° North 473 544 38,000  Level FlightAware
10:52PM -13.0970 -47.9050 349° North 473 544 38,000  Level FlightAware
10:53PM -13.0240 -47.9180 350° North 473 544 38,000  Level FlightAware
10:54PM -12.9510 -47.9310 350° North 473 544 38,000  Level FlightAware
10:54PM -12.8770 -47.9440 350° North 473 544 38,000  Level FlightAware
10:55PM -12.8040 -47.9580 349° North 473 544 38,000  Level FlightAware
10:58PM -12.5092 -47.9718 357° North  Level Estimated
10:59PM -12.3897 -47.9774 357° North  Level Estimated
11:00PM -12.2701 -47.9829 357° North  Level Estimated
11:01PM -12.1506 -47.9885 357° North  Level Estimated
11:02PM -12.0311 -47.9941 357° North  Level Estimated
11:02PM -11.7130 -48.1240 357° North 472 543 38,000  Level FlightAware
11:03PM -11.6250 -48.1390 351° North 471 542 38,000  Level FlightAware
11:03PM -11.5340 -48.1540 351° North 471 542 38,000  Level FlightAware
11:04PM -11.4500 -48.1690 350° North 471 542 38,000  Level FlightAware
11:05PM -11.3710 -48.1810 352° North 470 541 38,000  Level FlightAware
11:05PM -11.2550 -48.2000 351° North 471 542 38,000  Level FlightAware
11:06PM -11.1590 -48.2160 351° North 472 543 38,000  Level FlightAware
11:07PM -11.0770 -48.2290 351° North 473 544 38,000  Level FlightAware
11:09PM -10.8816 -48.2341 359° North  Level Estimated
11:09PM -10.8120 -48.2730 359° North 473 544 38,000  Level FlightAware
11:10PM -10.7270 -48.2870 351° North 472 543 38,000  Level FlightAware
11:10PM -10.6260 -48.2990 353° North 474 545 38,000  Level FlightAware
11:11PM -10.5260 -48.3020 358° North 474 545 38,000  Level FlightAware
11:12PM -10.4530 -48.3040 358° North 474 545 38,000  Level FlightAware
11:12PM -10.3580 -48.3070 358° North 475 547 38,000  Level FlightAware
11:13PM -10.2530 -48.3100 358° North 476 548 38,000  Level FlightAware
11:14PM -10.1420 -48.3140 358° North 476 548 38,000  Level FlightAware
11:15PM -10.0670 -48.3160 358° North 476 548 38,000  Level FlightAware
11:16PM -9.9190 -48.3200 358° North 477 549 38,000  Level FlightAware
11:16PM -9.8230 -48.3230 358° North 477 549 38,000  Level FlightAware
11:17PM -9.7160 -48.3260 358° North 476 548 38,000  Level FlightAware
11:18PM -9.5990 -48.3290 359° North 475 547 38,000  Level FlightAware
11:19PM -9.5070 -48.3320 358° North 475 547 38,000  Level FlightAware
11:19PM -9.4280 -48.3340 359° North 476 548 38,000  Level FlightAware
11:20PM -9.3290 -48.3370 358° North 476 548 38,000  Level FlightAware
11:21PM -9.2280 -48.3400 358° North 476 548 38,000  Level FlightAware
11:22PM -9.1300 -48.3430 358° North 475 547 38,000  Level FlightAware
11:22PM -9.0420 -48.3460 358° North 475 547 38,000  Level FlightAware
11:23PM -8.9550 -48.3480 359° North 476 548 38,000  Level FlightAware
11:24PM -8.9550 -48.3480 359° North 477 549 38,000  Level FlightAware
11:24PM -8.7660 -48.3540 358° North 478 550 38,000  Level FlightAware
11:25PM -8.6810 -48.3570 358° North 478 550 38,000  Level FlightAware
11:26PM -8.6060 -48.3600 358° North 478 550 38,000  Level FlightAware
11:27PM -8.5120 -48.3630 358° North 478 550 38,000  Level FlightAware
11:27PM -8.4370 -48.3650 358° North 478 550 38,000  Level FlightAware
11:28PM -8.3620 -48.3680 358° North 478 550 38,000  Level FlightAware
11:29PM -8.2870 -48.3710 358° North 478 550 38,000  Level FlightAware
11:29PM -8.2120 -48.3730 358° North 478 550 38,000  Level FlightAware
11:30PM -8.1180 -48.3770 358° North 478 550 38,000  Level FlightAware
11:31PM -8.0430 -48.3790 358° North 478 550 38,000  Level FlightAware
11:31PM -7.9670 -48.3820 358° North 478 550 38,000  Level FlightAware
11:32PM -7.8920 -48.3850 358° North 478 550 38,000  Level FlightAware
11:33PM -7.8170 -48.3870 358° North 478 550 38,000  Level FlightAware
11:34PM -7.7230 -48.3910 358° North 478 550 38,000  Level FlightAware
11:34PM -7.6480 -48.3930 358° North 478 550 38,000 -720 Level FlightAware
11:37PM -7.3728 -48.3967 359° North  Level Estimated
11:38PM -7.2532 -48.3983 359° North  Level Estimated
11:39PM -7.1336 -48.3999 359° North  Level Estimated
11:40PM -7.0139 -48.4015 359° North  Level Estimated
11:41PM -6.8943 -48.4031 359° North  Level Estimated
11:42PM -6.7746 -48.4047 359° North  Level Estimated
11:43PM -6.6550 -48.4063 359° North  Level Estimated
11:44PM -6.5354 -48.4079 359° North  Level Estimated
11:45PM -6.4157 -48.4095 359° North  Level Estimated
11:46PM -6.2961 -48.4111 359° North  Level Estimated
11:47PM -6.1764 -48.4127 359° North  Level Estimated
11:48PM -6.0568 -48.4143 359° North  Level Estimated
11:49PM -5.9372 -48.4159 359° North  Level Estimated
11:50PM -5.8175 -48.4175 359° North  Level Estimated
11:51PM -5.6979 -48.4191 359° North  Level Estimated
11:52PM -5.5782 -48.4207 359° North  Level Estimated
11:53PM -5.4586 -48.4222 359° North  Level Estimated
11:54PM -5.3390 -48.4238 359° North  Level Estimated
11:55PM -5.2193 -48.4254 359° North  Level Estimated
11:56PM -5.0997 -48.4270 359° North  Level Estimated
11:57PM -4.9800 -48.4286 359° North  Level Estimated
11:58PM -4.8597 -48.4302 359° North  Level Estimated
11:59PM -4.7395 -48.4318 359° North  Level Estimated
12:00AM -4.6192 -48.4334 359° North  Level Estimated
12:01AM -4.4989 -48.4350 359° North  Level Estimated
12:02AM -4.3786 -48.4366 359° North  Level Estimated
12:03AM -4.2583 -48.4382 359° North  Level Estimated
12:04AM -4.1380 -48.4398 359° North  Level Estimated
12:05AM -4.0177 -48.4414 359° North  Level Estimated
12:06AM -3.8974 -48.4430 359° North  Level Estimated
12:07AM -3.7771 -48.4446 359° North  Level Estimated
12:08AM -3.6569 -48.4462 359° North  Level Estimated
12:09AM -3.5366 -48.4478 359° North  Level Estimated
12:10AM -3.4163 -48.4493 359° North  Level Estimated
12:11AM -3.2960 -48.4509 359° North  Level Estimated
12:12AM -3.1757 -48.4525 359° North  Level Estimated
12:13AM -3.0554 -48.4541 359° North  Level Estimated
12:14AM -2.9351 -48.4557 359° North  Level Estimated
12:15AM -2.8148 -48.4573 359° North  Level Estimated
12:16AM -2.6945 -48.4589 359° North  Level Estimated
12:17AM -2.5742 -48.4605 359° North  Level Estimated
12:18AM -2.4539 -48.4621 359° North  Level Estimated
12:19AM -2.3337 -48.4637 359° North  Level Estimated
12:20AM -2.2134 -48.4652 359° North  Level Estimated
12:20AM -1.7740 -48.5810 359° North 287 330 6,300  Level FlightAware
12:21AM -2.0931 -48.4668 359° North  Level Estimated
12:21AM -1.7410 -48.5840 355° North 286 329 5,700  Level FlightAware
12:21AM -1.6800 -48.5890 355° North 285 328 5,000 -1,020 Descending FlightAware
12:24AM -1.4397 -48.4989 21° North  Level Estimated
12:24AM -1.4890 -48.5860 21° North 170 196 2,100  Level FlightAware
12:24AM -1.4830 -48.5810 40° Northeast 157 181 2,100  Level FlightAware
12:25AM -1.4710 -48.5690 45° Northeast 157 181 2,100 -240 Level FlightAware
12:25AM -1.4820 -48.5800 225° Southwest 149 171 1,900 -240 Descending FlightAware
12:26AM -1.4710 -48.5690 45° Northeast 149 171 1,900 -600 Level FlightAware
12:26AM -1.4820 -48.5800 225° Southwest 131 151 1,500 -1,080 Descending FlightAware
12:26AM -1.4280 -48.5250 46° Northeast 132 152 1,100 -720 Descending FlightAware
12:27AM -1.4190 -48.5170 42° Northeast 132 152 900 -720 Descending FlightAware
12:27AM -1.4080 -48.5050 47° Northeast 135 155 600 -480 Descending FlightAware
12:28AM -1.3890 -48.4850 46° Northeast 137 158 400 -300 Descending FlightAware
12:31AM -1.3793 -48.4763 42° Northeast  Level Estimated
12:32AM -1.3793 -48.4763 270° West  Level Estimated
12:33AM -1.3793 -48.4763 270° West  Level Estimated
12:34AM -1.3793 -48.4763 270° West  Level Estimated
12:35AM -1.3793 -48.4763 270° West  Level Estimated
12:36AM -1.3793 -48.4763 270° West  Level Estimated
12:37AM -1.3793 -48.4763 270° West  Level Estimated
12:38AM -1.3793 -48.4763 270° West  Level Estimated
12:39AM -1.3793 -48.4763 270° West  Level Estimated
12:40AM -1.3793 -48.4763 270° West  Level Estimated
12:41AM -1.3793 -48.4763 270° West  Level Estimated
12:42AM -1.3793 -48.4763 270° West  Level Estimated
12:43AM -1.3793 -48.4763 270° West  Level Estimated
12:44AM -1.3793 -48.4763 270° West  Level Estimated
12:45AM -1.3793 -48.4763 270° West  Level Estimated
12:46AM -1.3793 -48.4763 270° West  Level Estimated
12:47AM -1.3793 -48.4763 270° West  Level Estimated